createdAt,value
2022-09-15T00:01:13.056Z,26.58
2022-09-15T00:03:41.127Z,13.30
2022-09-15T00:06:09.697Z,8.05
2022-09-15T00:08:37.748Z,24.40
2022-09-15T00:15:14.847Z,14.80
2022-09-15T00:17:47.672Z,15.70
2022-09-15T00:20:16.402Z,25.50
2022-09-15T00:22:44.331Z,13.57
2022-09-15T00:25:12.406Z,14.43
2022-09-15T00:30:08.656Z,23.58
2022-09-15T00:32:36.668Z,17.35
2022-09-15T00:40:00.064Z,28.95
2022-09-15T00:42:27.659Z,18.02
2022-09-15T00:44:58.807Z,14.68
2022-09-15T00:47:35.243Z,26.80
2022-09-15T00:50:09.036Z,18.77
2022-09-15T00:52:52.214Z,12.77
2022-09-15T00:55:29.762Z,22.50
2022-09-15T00:58:08.867Z,11.88
2022-09-15T01:00:37.082Z,17.20
2022-09-15T01:03:05.158Z,23.40
2022-09-15T01:05:47.558Z,8.60
2022-09-15T01:08:21.301Z,16.40
2022-09-15T01:10:49.284Z,17.48
2022-09-15T01:13:16.930Z,14.57
2022-09-15T01:15:47.408Z,11.07
2022-09-15T01:18:27.039Z,17.40
2022-09-15T01:21:32.698Z,13.25
2022-09-15T01:24:28.071Z,13.38
2022-09-15T01:27:41.120Z,26.15
2022-09-15T01:30:11.671Z,25.25
2022-09-15T01:33:04.095Z,16.27
2022-09-15T01:35:48.787Z,19.38
2022-09-15T01:38:24.357Z,13.82
2022-09-15T01:40:59.043Z,12.43
2022-09-15T01:43:29.819Z,20.08
2022-09-15T01:45:59.258Z,17.98
2022-09-15T01:48:28.387Z,17.17
2022-09-15T01:51:02.001Z,19.38
2022-09-15T01:53:32.330Z,9.80
2022-09-15T01:56:09.558Z,16.55
2022-09-15T01:58:39.557Z,18.92
2022-09-15T02:01:21.570Z,17.52
2022-09-15T02:03:55.652Z,9.23
2022-09-15T02:06:33.844Z,19.02
2022-09-15T02:09:11.009Z,11.43
2022-09-15T02:11:48.059Z,10.75
2022-09-15T02:14:36.873Z,13.95
2022-09-15T02:17:05.519Z,14.93
2022-09-15T02:19:41.018Z,24.95
2022-09-15T02:22:18.976Z,19.40
2022-09-15T02:24:53.683Z,8.13
2022-09-15T02:27:25.028Z,17.85
2022-09-15T02:29:56.673Z,15.02
2022-09-15T02:32:28.019Z,11.95
2022-09-15T02:34:59.733Z,22.55
2022-09-15T02:37:27.865Z,18.92
2022-09-15T02:39:58.153Z,16.55
2022-09-15T02:42:31.367Z,13.30
2022-09-15T02:44:59.822Z,33.65
2022-09-15T02:47:32.276Z,10.82
2022-09-15T02:50:00.267Z,23.13
2022-09-15T02:54:55.489Z,15.00
2022-09-15T02:57:23.782Z,17.98
2022-09-15T03:00:10.223Z,14.13
2022-09-15T03:02:38.859Z,16.63
2022-09-15T03:05:08.169Z,17.73
2022-09-15T03:07:37.765Z,18.40
2022-09-15T03:10:06.818Z,22.13
2022-09-15T03:12:42.613Z,14.77
2022-09-15T03:15:12.402Z,14.63
2022-09-15T03:17:42.820Z,11.50
2022-09-15T03:20:14.704Z,16.95
2022-09-15T03:22:43.086Z,10.95
2022-09-15T03:25:11.502Z,16.33
2022-09-15T03:27:39.788Z,13.25
2022-09-15T03:30:08.130Z,11.32
2022-09-15T03:32:36.501Z,12.23
2022-09-15T03:35:05.444Z,10.77
2022-09-15T03:37:33.930Z,10.68
2022-09-15T03:40:03.770Z,14.48
2022-09-15T03:42:32.391Z,13.57
2022-09-15T03:45:00.005Z,12.55
2022-09-15T03:47:28.175Z,10.50
2022-09-15T03:51:18.481Z,14.75
2022-09-15T03:53:46.656Z,11.07
2022-09-15T03:56:23.991Z,15.50
2022-09-15T03:58:52.477Z,10.07
2022-09-15T04:01:21.480Z,9.95
2022-09-15T04:03:51.493Z,13.63
2022-09-15T04:06:21.026Z,9.98
2022-09-15T04:08:49.843Z,14.73
2022-09-15T04:11:20.983Z,19.70
2022-09-15T04:13:48.959Z,12.02
2022-09-15T04:16:20.099Z,16.05
2022-09-15T04:18:47.741Z,10.88
2022-09-15T04:21:18.300Z,12.85
2022-09-15T04:23:47.527Z,10.77
2022-09-15T04:26:27.515Z,8.88
2022-09-15T04:28:55.180Z,9.88
2022-09-15T04:31:23.288Z,9.25
2022-09-15T04:33:53.938Z,10.18
2022-09-15T04:36:24.987Z,10.98
2022-09-15T04:38:53.215Z,13.93
2022-09-15T04:43:49.037Z,18.55
2022-09-15T04:46:16.955Z,9.75
2022-09-15T04:48:49.118Z,18.58
2022-09-15T04:51:21.709Z,8.30
2022-09-15T04:53:50.289Z,11.75
2022-09-15T04:56:20.644Z,7.20
2022-09-15T04:58:51.175Z,14.10
2022-09-15T05:01:22.216Z,8.05
2022-09-15T05:03:50.661Z,13.32
2022-09-15T05:08:55.508Z,7.63
2022-09-15T05:11:24.989Z,14.23
2022-09-15T05:13:52.613Z,12.63
2022-09-15T05:16:29.423Z,7.70
2022-09-15T05:19:00.271Z,10.23
2022-09-15T05:21:28.523Z,11.25
2022-09-15T05:23:56.898Z,7.07
2022-09-15T05:26:27.203Z,6.53
2022-09-15T05:28:56.040Z,15.52
2022-09-15T05:31:26.933Z,13.75
2022-09-15T05:33:55.486Z,12.95
2022-09-15T05:36:26.492Z,12.35
2022-09-15T05:38:56.661Z,14.35
2022-09-15T05:41:25.712Z,8.48
2022-09-15T05:43:55.198Z,12.50
2022-09-15T05:46:26.109Z,11.55
2022-09-15T05:48:55.829Z,16.00
2022-09-15T05:51:24.112Z,11.10
2022-09-15T05:58:48.926Z,7.78
2022-09-15T06:01:22.968Z,11.35
2022-09-15T06:03:51.382Z,12.60
2022-09-15T06:06:19.782Z,11.20
2022-09-15T06:08:53.077Z,16.05
2022-09-15T06:11:27.411Z,9.48
2022-09-15T06:13:55.154Z,14.18
2022-09-15T06:16:24.419Z,13.40
2022-09-15T06:18:53.404Z,10.65
2022-09-15T06:21:26.955Z,8.98
2022-09-15T06:23:56.627Z,16.13
2022-09-15T06:26:24.683Z,13.02
2022-09-15T06:29:03.090Z,5.60
2022-09-15T06:31:33.021Z,12.23
2022-09-15T06:34:01.286Z,9.73
2022-09-15T06:36:30.295Z,6.60
2022-09-15T06:38:58.848Z,12.52
2022-09-15T06:41:38.138Z,13.95
2022-09-15T06:44:16.525Z,10.82
2022-09-15T06:46:44.178Z,12.90
2022-09-15T06:49:11.879Z,12.82
2022-09-15T06:51:39.907Z,13.63
2022-09-15T06:54:07.905Z,20.17
2022-09-15T06:56:38.351Z,12.18
2022-09-15T06:59:06.314Z,16.35
2022-09-15T07:01:34.369Z,17.00
2022-09-15T07:06:33.236Z,9.90
2022-09-15T07:09:02.576Z,13.27
2022-09-15T07:11:31.359Z,23.55
2022-09-15T07:13:59.473Z,9.23
2022-09-15T07:16:27.172Z,9.50
2022-09-15T07:19:01.402Z,7.47
2022-09-15T07:21:29.450Z,9.70
2022-09-15T07:26:27.929Z,12.23
2022-09-15T07:29:00.728Z,13.00
2022-09-15T07:31:31.407Z,11.52
2022-09-15T07:34:00.000Z,13.95
2022-09-15T07:36:28.747Z,14.07
2022-09-15T07:38:57.006Z,8.40
2022-09-15T07:41:27.280Z,6.40
2022-09-15T07:43:57.180Z,11.50
2022-09-15T07:46:27.114Z,10.25
2022-09-15T07:48:58.063Z,11.05
2022-09-15T07:51:26.612Z,11.45
2022-09-15T07:53:54.998Z,9.73
2022-09-15T07:56:24.587Z,8.65
2022-09-15T07:58:52.640Z,6.72
2022-09-15T08:01:22.695Z,11.73
2022-09-15T08:03:52.381Z,10.75
2022-09-15T08:06:24.874Z,15.18
2022-09-15T08:08:56.523Z,7.05
2022-09-15T08:11:28.378Z,12.65
2022-09-15T08:13:56.172Z,9.35
2022-09-15T08:16:24.934Z,10.02
2022-09-15T08:18:54.514Z,14.95
2022-09-15T08:21:22.630Z,9.73
2022-09-15T08:26:26.116Z,18.45
2022-09-15T08:28:54.303Z,11.70
2022-09-15T08:31:24.514Z,8.75
2022-09-15T08:33:55.629Z,12.77
2022-09-15T08:36:24.701Z,8.98
2022-09-15T08:38:52.528Z,10.75
2022-09-15T08:41:25.969Z,15.18
2022-09-15T08:43:58.484Z,13.63
2022-09-15T08:46:36.677Z,10.82
2022-09-15T08:49:13.221Z,14.45
2022-09-15T08:51:48.297Z,9.65
2022-09-15T08:54:25.598Z,7.93
2022-09-15T08:56:55.018Z,12.10
2022-09-15T08:59:22.966Z,8.88
2022-09-15T09:02:29.530Z,6.38
2022-09-15T09:05:37.195Z,6.78
2022-09-15T09:08:17.035Z,11.32
2022-09-15T09:10:54.886Z,10.23
2022-09-15T09:13:58.733Z,8.05
2022-09-15T09:16:46.068Z,8.77
2022-09-15T09:19:39.789Z,11.07
2022-09-15T09:22:15.746Z,7.53
2022-09-15T09:24:50.524Z,11.00
2022-09-15T09:27:24.000Z,12.95
2022-09-15T09:29:59.882Z,12.80
2022-09-15T09:32:38.764Z,8.93
2022-09-15T09:35:29.870Z,7.78
2022-09-15T09:38:00.093Z,5.05
2022-09-15T09:40:28.440Z,8.88
2022-09-15T09:42:56.808Z,8.05
2022-09-15T09:45:24.919Z,8.80
2022-09-15T09:47:52.933Z,9.65
2022-09-15T09:53:27.610Z,7.28
2022-09-15T09:56:15.819Z,11.93
2022-09-15T09:58:44.163Z,10.95
2022-09-15T10:01:18.632Z,7.97
2022-09-15T10:03:47.067Z,11.60
2022-09-15T10:06:22.436Z,10.25
2022-09-15T10:09:06.026Z,17.55
2022-09-15T10:11:47.514Z,14.63
2022-09-15T10:14:30.457Z,19.75
2022-09-15T10:17:12.673Z,11.38
2022-09-15T10:19:48.073Z,9.73
2022-09-15T10:22:27.208Z,4.22
2022-09-15T10:24:55.199Z,12.02
2022-09-15T10:29:54.060Z,4.68
2022-09-15T10:32:30.362Z,7.93
2022-09-15T10:35:13.563Z,12.48
2022-09-15T10:37:56.612Z,4.35
2022-09-15T10:40:31.589Z,6.20
2022-09-15T10:43:21.455Z,5.57
2022-09-15T10:45:51.438Z,4.82
2022-09-15T10:48:33.047Z,6.90
2022-09-15T10:51:39.572Z,3.08
2022-09-15T10:54:42.597Z,6.47
2022-09-15T10:57:52.088Z,2.90
2022-09-15T11:00:22.839Z,2.13
2022-09-15T11:03:09.103Z,4.95
2022-09-15T11:06:35.193Z,4.00
2022-09-15T11:09:25.191Z,1.85
2022-09-15T11:12:00.340Z,5.32
2022-09-15T11:14:48.850Z,2.95
2022-09-15T11:17:27.202Z,5.85
2022-09-15T11:20:15.511Z,5.65
2022-09-15T11:23:23.761Z,3.95
2022-09-15T11:25:58.745Z,4.30
2022-09-15T11:28:34.005Z,6.60
2022-09-15T11:31:40.306Z,6.22
2022-09-15T11:34:08.486Z,2.83
2022-09-15T11:37:03.900Z,5.60
2022-09-15T11:39:39.942Z,4.60
2022-09-15T11:42:32.319Z,3.72
2022-09-15T11:45:00.640Z,8.93
2022-09-15T11:47:39.826Z,2.15
2022-09-15T11:50:28.956Z,5.65
2022-09-15T11:53:28.216Z,2.72
2022-09-15T11:56:19.599Z,5.50
2022-09-15T11:59:02.304Z,5.30
2022-09-15T12:01:52.976Z,4.80
2022-09-15T12:04:37.186Z,3.63
2022-09-15T12:07:15.796Z,7.32
2022-09-15T12:09:44.038Z,2.97
2022-09-15T12:12:16.062Z,5.60
2022-09-15T12:14:49.594Z,3.92
2022-09-15T12:17:51.969Z,5.38
2022-09-15T12:20:26.734Z,6.80
2022-09-15T12:22:55.017Z,4.45
2022-09-15T12:25:32.670Z,3.45
2022-09-15T12:30:47.565Z,4.57
2022-09-15T12:36:39.143Z,6.28
2022-09-15T12:39:48.698Z,4.05
2022-09-15T12:42:21.423Z,8.93
2022-09-15T12:44:57.382Z,5.72
2022-09-15T12:47:40.720Z,3.83
2022-09-15T12:50:17.381Z,2.72
2022-09-15T12:52:51.925Z,1.83
2022-09-15T12:55:35.292Z,5.13
2022-09-15T12:58:14.768Z,5.22
2022-09-15T13:01:06.805Z,5.00
2022-09-15T13:03:58.915Z,4.85
2022-09-15T13:06:35.549Z,3.42
2022-09-15T13:09:05.856Z,3.28
2022-09-15T13:11:37.523Z,5.25
2022-09-15T13:14:08.747Z,4.30
2022-09-15T13:16:46.146Z,5.60
2022-09-15T13:19:29.599Z,4.47
2022-09-15T13:22:05.121Z,5.82
2022-09-15T13:25:03.952Z,4.32
2022-09-15T13:27:43.613Z,6.47
2022-09-15T13:30:11.549Z,4.82
2022-09-15T13:32:43.743Z,3.92
2022-09-15T13:35:28.182Z,3.45
2022-09-15T13:38:17.349Z,7.20
2022-09-15T13:40:48.675Z,5.63
2022-09-15T13:46:17.086Z,2.95
2022-09-15T13:49:18.558Z,2.40
2022-09-15T13:52:01.667Z,3.05
2022-09-15T13:54:30.143Z,2.85
2022-09-15T13:57:01.950Z,3.22
2022-09-15T13:59:32.839Z,6.57
2022-09-15T14:02:01.089Z,1.55
2022-09-15T14:04:31.741Z,2.40
2022-09-15T14:07:01.841Z,6.15
2022-09-15T14:09:31.449Z,2.33
2022-09-15T14:12:07.622Z,4.97
2022-09-15T14:14:51.394Z,4.63
2022-09-15T14:17:25.015Z,5.05
2022-09-15T14:19:58.565Z,5.47
2022-09-15T14:22:31.975Z,3.10
2022-09-15T14:25:06.081Z,6.50
2022-09-15T14:27:36.075Z,3.83
2022-09-15T14:30:09.459Z,2.33
2022-09-15T14:32:45.056Z,3.45
2022-09-15T14:35:19.733Z,2.95
2022-09-15T14:37:50.294Z,3.92
2022-09-15T14:40:23.907Z,5.38
2022-09-15T14:42:51.985Z,3.10
2022-09-15T14:48:17.182Z,4.45
2022-09-15T14:50:52.287Z,3.22
2022-09-15T14:53:23.835Z,3.08
2022-09-15T14:56:11.573Z,4.82
2022-09-15T15:01:12.036Z,1.98
2022-09-15T15:04:12.351Z,3.65
2022-09-15T15:06:52.084Z,4.05
2022-09-15T15:09:21.313Z,1.88
2022-09-15T15:11:53.349Z,0.98
2022-09-15T15:17:00.337Z,4.85
2022-09-15T15:22:20.477Z,4.13
2022-09-15T15:24:50.264Z,4.75
2022-09-15T15:27:33.490Z,1.42
2022-09-15T15:30:30.593Z,3.55
2022-09-15T15:33:11.207Z,1.63
2022-09-15T15:35:39.123Z,4.55
2022-09-15T15:38:18.456Z,1.63
2022-09-15T15:40:46.975Z,2.80
2022-09-15T15:43:15.238Z,3.08
2022-09-15T15:46:01.318Z,2.17
2022-09-15T15:48:38.385Z,1.73
2022-09-15T15:51:07.552Z,1.88
2022-09-15T15:53:35.674Z,2.05
2022-09-15T15:56:03.331Z,3.47
2022-09-15T16:01:00.379Z,3.20
2022-09-15T16:03:28.396Z,1.52
2022-09-15T16:08:27.555Z,2.03
2022-09-15T16:10:56.624Z,1.30
2022-09-15T16:13:26.534Z,2.88
2022-09-15T16:15:56.913Z,1.60
2022-09-15T16:18:24.922Z,5.75
2022-09-15T16:20:53.675Z,1.40
2022-09-15T16:23:23.102Z,2.45
2022-09-15T16:25:59.601Z,2.45
2022-09-15T16:28:28.777Z,4.47
2022-09-15T16:30:57.264Z,4.43
2022-09-15T16:33:25.423Z,4.70
2022-09-15T16:36:09.380Z,1.60
2022-09-15T16:38:37.262Z,0.90
2022-09-15T16:41:20.986Z,2.45
2022-09-15T16:43:49.087Z,2.20
2022-09-15T16:48:47.242Z,1.05
2022-09-15T16:51:26.749Z,2.53
2022-09-15T16:53:56.559Z,2.65
2022-09-15T16:56:24.531Z,1.55
2022-09-15T17:01:28.220Z,2.05
2022-09-15T17:03:56.098Z,1.23
2022-09-15T17:06:24.132Z,1.05
2022-09-15T17:08:51.715Z,0.68
2022-09-15T17:11:20.618Z,3.25
2022-09-15T17:13:48.358Z,0.60
2022-09-15T17:16:22.028Z,0.63
2022-09-15T17:18:49.960Z,0.82
2022-09-15T17:21:19.116Z,0.40
2022-09-15T17:23:48.697Z,0.50
2022-09-15T17:26:21.728Z,2.10
2022-09-15T17:28:50.739Z,1.73
2022-09-15T17:31:21.170Z,0.70
2022-09-15T17:33:49.876Z,0.98
2022-09-15T17:36:19.100Z,3.42
2022-09-15T17:38:56.967Z,5.78
2022-09-15T17:41:25.923Z,1.92
2022-09-15T17:43:54.324Z,1.73
2022-09-15T17:46:22.337Z,1.10
2022-09-15T17:51:17.894Z,5.10
2022-09-15T17:53:47.214Z,1.88
2022-09-15T17:56:15.326Z,1.38
2022-09-15T18:01:16.508Z,1.20
2022-09-15T18:03:46.894Z,1.75
2022-09-15T18:06:14.931Z,4.13
2022-09-15T18:08:43.127Z,1.60
2022-09-15T18:11:14.513Z,3.47
2022-09-15T18:13:43.274Z,0.95
2022-09-15T18:16:12.943Z,2.13
2022-09-15T18:18:43.690Z,1.80
2022-09-15T18:21:19.663Z,3.15
2022-09-15T18:23:48.455Z,2.90
2022-09-15T18:26:23.916Z,3.35
2022-09-15T18:28:54.843Z,3.55
2022-09-15T18:31:23.044Z,4.53
2022-09-15T18:33:50.661Z,3.78
2022-09-15T18:36:18.913Z,2.70
2022-09-15T18:38:46.550Z,2.70
2022-09-15T18:41:14.669Z,3.72
2022-09-15T18:43:42.470Z,3.72
2022-09-15T18:46:10.586Z,3.70
2022-09-15T18:51:08.635Z,7.15
2022-09-15T18:53:37.604Z,2.60
2022-09-15T18:56:12.935Z,2.78
2022-09-15T18:58:41.027Z,1.73
2022-09-15T19:03:44.118Z,2.97
2022-09-15T19:06:12.547Z,4.00
2022-09-15T19:08:40.440Z,1.85
2022-09-15T19:13:35.800Z,6.20
2022-09-15T19:16:08.762Z,2.15
2022-09-15T19:18:37.050Z,4.65
2022-09-15T19:21:10.605Z,3.35
2022-09-15T19:23:39.245Z,4.85
2022-09-15T19:26:10.037Z,4.30
2022-09-15T19:28:38.179Z,4.22
2022-09-15T19:31:06.481Z,2.28
2022-09-15T19:33:34.614Z,5.20
2022-09-15T19:36:24.205Z,5.10
2022-09-15T19:38:51.794Z,1.60
2022-09-15T19:41:19.427Z,4.57
2022-09-15T19:43:50.278Z,10.48
2022-09-15T19:46:21.295Z,3.97
2022-09-15T19:48:50.182Z,3.30
2022-09-15T19:51:18.448Z,2.33
2022-09-15T19:58:43.414Z,4.72
2022-09-15T20:01:11.338Z,6.80
2022-09-15T20:03:39.270Z,3.53
2022-09-15T20:08:36.573Z,4.38
2022-09-15T20:11:08.299Z,4.25
2022-09-15T20:13:41.357Z,5.07
2022-09-15T20:16:09.655Z,5.38
2022-09-15T20:21:08.168Z,3.92
2022-09-15T20:23:36.701Z,6.10
2022-09-15T20:26:10.015Z,8.43
2022-09-15T20:28:38.179Z,3.40
2022-09-15T20:33:37.116Z,4.63
2022-09-15T20:36:10.733Z,6.32
2022-09-15T20:38:39.334Z,6.55
2022-09-15T20:41:10.346Z,4.13
2022-09-15T20:43:40.902Z,5.53
2022-09-15T20:46:10.570Z,4.60
2022-09-15T20:48:39.250Z,9.73
2022-09-15T20:51:15.431Z,4.15
2022-09-15T20:53:45.352Z,8.52
2022-09-15T20:56:13.714Z,3.53
2022-09-15T20:58:41.980Z,5.35
2022-09-15T21:01:16.407Z,6.75
2022-09-15T21:03:45.903Z,4.70
2022-09-15T21:06:21.119Z,8.57
2022-09-15T21:08:49.848Z,3.35
2022-09-15T21:11:19.711Z,9.00
2022-09-15T21:13:49.561Z,3.28
2022-09-15T21:16:20.731Z,4.72
2022-09-15T21:18:49.596Z,4.25
2022-09-15T21:21:21.844Z,3.85
2022-09-15T21:23:58.771Z,6.32
2022-09-15T21:26:28.873Z,2.77
2022-09-15T21:28:57.665Z,5.10
2022-09-15T21:31:28.979Z,7.28
2022-09-15T21:33:57.589Z,5.28
2022-09-15T21:36:30.226Z,5.57
2022-09-15T21:39:00.765Z,7.72
2022-09-15T21:41:33.495Z,4.55
2022-09-15T21:44:02.343Z,4.53
2022-09-15T21:46:32.210Z,9.25
2022-09-15T21:49:01.372Z,7.63
2022-09-15T21:51:31.716Z,4.70
2022-09-15T21:54:01.192Z,3.35
2022-09-15T21:56:30.570Z,10.52
2022-09-15T21:58:59.040Z,6.20
2022-09-15T22:01:30.335Z,4.65
2022-09-15T22:04:01.528Z,4.28
2022-09-15T22:06:35.339Z,9.80
2022-09-15T22:09:09.937Z,4.22
2022-09-15T22:11:39.989Z,11.77
2022-09-15T22:14:09.287Z,4.00
2022-09-15T22:16:40.465Z,5.53
2022-09-15T22:19:11.421Z,6.72
2022-09-15T22:21:42.234Z,9.45
2022-09-15T22:24:13.651Z,7.35
2022-09-15T22:26:43.575Z,7.90
2022-09-15T22:29:12.447Z,6.53
2022-09-15T22:31:45.137Z,6.78
2022-09-15T22:34:14.258Z,5.10
2022-09-15T22:36:43.269Z,6.97
2022-09-15T22:39:13.635Z,5.10
2022-09-15T22:41:42.080Z,5.68
2022-09-15T22:44:25.151Z,9.65
2022-09-15T22:46:57.482Z,6.15
2022-09-15T22:49:30.107Z,4.13
2022-09-15T22:52:02.636Z,2.88
2022-09-15T22:54:31.126Z,6.78
2022-09-15T22:57:00.440Z,3.30
2022-09-15T22:59:31.132Z,6.50
2022-09-15T23:01:59.700Z,7.30
2022-09-15T23:04:30.932Z,6.78
2022-09-15T23:07:00.221Z,7.43
2022-09-15T23:09:28.515Z,4.97
2022-09-15T23:11:56.960Z,13.73
2022-09-15T23:14:25.945Z,7.70
2022-09-15T23:16:54.651Z,8.93
2022-09-15T23:19:22.673Z,3.42
2022-09-15T23:29:15.424Z,6.72
2022-09-15T23:31:43.620Z,4.03
2022-09-15T23:34:13.650Z,5.63
2022-09-15T23:36:42.415Z,5.55
2022-09-15T23:39:11.016Z,4.45
2022-09-15T23:41:39.748Z,2.75
2022-09-15T23:44:08.616Z,6.03
2022-09-15T23:46:36.663Z,7.63
2022-09-15T23:49:06.386Z,4.07
2022-09-15T23:51:36.108Z,4.70
2022-09-15T23:54:05.226Z,4.78
2022-09-15T23:56:33.753Z,4.45
2022-09-15T23:59:01.881Z,5.38
